aviador You're here:

WSSS Decoded Metar

SINGAPORE in SINGAPORE
Report Time2018-04-23 22:30:00
UTC Time2018-04-23 22:47:49
Flight Rules vfr VFR
WindVRB at 02 kt
Visibility9999 m
Phenomena:Sand
Clouds:Few 018 Hf
Scattered 150 Hf
Broken 300 Hf
Expected CloudBase > 800 ft AGL from Temp-Dew spread
Ceiling30,000 ft
Temp26°C (ISA +11)
Dew Point24°C (89% RH)
QNH1009 hPa
Density Alt1,860 ft
Elevation52 ft
Report Wrong Elevation
Raw Report
METAR WSSS 232230Z VRB02KT 9999 FEW018 SCT150 BKN300 26/24 Q1009
NOSIG=####018000072####
SACN88 CWAO 232230
ABB SA 2230 AUTO8 M M M M/10/-04/2510/M/ M 14MM=

Extra information for WSSS:More info

Metar Taf Metar & Taf Last 4 Metars F.Rules Stats Wind Profile Meteogram Temp Stats Airport Information Weather charts Add Link Nearby VenuesMetar ALERT Operation Metar Decoded Social comments